Terminal Aerodrome Forecast
Issued by NWS Binghamton, NY

Home | Current Version | Previous Version | Text Only | Print | Product List | Glossary On
Versions: 1 2 3 4 5 6 7 8 9 10 11 12 13 14 15 16 17 18 19 20 21 22 23
000
FTUS41 KBGM 041736
TAFBGM
TAF
KBGM 041736Z 0418/0518 32005KT P6SM SCT040
     FM042200 VRB03KT P6SM SCT150
     FM050500 15007KT P6SM -SN OVC040
     FM050700 15007KT 3SM -SN OVC025
      TEMPO 0508/0511 1SM -SN OVC014
     FM051400 22008KT P6SM -SN OVC022
     FM051700 27010KT P6SM BKN030=

USA.gov is the U.S. government's official web portal to all federal, state and local government web resources and services.